Time;durP1;ratioP1;P1;durP2;ratioP2;P2;SDS_P1;SDS_P2;PMS_P1;PMS_P2;Temp;Humidity;BMP_temperature;BMP_pressure;BME280_temperature;BME280_humidity;BME280_pressure;Samples;Min_cycle;Max_cycle;Signal;HPM_P1;HPM_P2
2023/04/28 00:02:10;;;;;;;8.75;4.95;;;;;;;8.93;nan;101286.94;4992601;28;20038;-42
2023/04/28 00:04:35;;;;;;;7.65;5.05;;;;;;;9.14;nan;101325.91;4993790;28;20468;-40
2023/04/28 00:07:00;;;;;;;8.90;5.57;;;;;;;9.22;nan;101337.16;4992213;28;20132;-42
2023/04/28 00:09:26;;;;;;;7.43;5.43;;;;;;;9.04;nan;101311.22;4993554;28;20030;-44
2023/04/28 00:11:51;;;;;;;8.52;5.57;;;;;;;9.21;nan;101334.53;4993320;28;20042;-43
2023/04/28 00:14:16;;;;;;;8.05;5.65;;;;;;;9.12;nan;101317.19;4991981;28;20352;-43
2023/04/28 00:16:42;;;;;;;6.25;5.30;;;;;;;9.15;nan;101325.03;4993407;28;20026;-44
2023/04/28 00:19:07;;;;;;;7.53;5.38;;;;;;;9.15;nan;101326.78;4993639;28;20076;-43
2023/04/28 00:21:33;;;;;;;6.38;5.78;;;;;;;9.16;nan;101328.53;4993207;28;20474;-44
2023/04/28 00:23:58;;;;;;;8.45;5.35;;;;;;;8.75;nan;101256.63;4991767;28;20041;-41
2023/04/28 00:26:23;;;;;;;7.25;5.10;;;;;;;9.15;nan;101319.78;4993437;28;20084;-44
2023/04/28 00:28:49;;;;;;;6.00;5.40;;;;;;;8.75;nan;101246.13;4993316;28;20077;-45
2023/04/28 00:31:15;;;;;;;6.13;4.95;;;;;;;9.13;nan;101291.81;5008508;28;20073;-42
2023/04/28 00:33:41;;;;;;;6.88;5.13;;;;;;;8.98;nan;101262.31;4992403;28;20066;-49
2023/04/28 00:36:07;;;;;;;6.60;5.70;;;;;;;8.63;nan;101191.25;5008433;28;20117;-45
2023/04/28 00:38:33;;;;;;;8.93;5.10;;;;;;;9.11;nan;101281.31;4993000;28;20118;-42
2023/04/28 00:40:58;;;;;;;7.50;5.65;;;;;;;9.10;nan;101282.22;4991547;28;20105;-39
2023/04/28 00:43:24;;;;;;;5.90;5.28;;;;;;;8.79;nan;101221.56;4993260;28;20398;-42
2023/04/28 00:45:49;;;;;;;5.35;4.85;;;;;;;8.69;nan;101201.63;4993278;28;20038;-42
2023/04/28 00:48:15;;;;;;;7.60;5.68;;;;;;;9.09;nan;101271.75;4991049;28;20092;-44
2023/04/28 00:50:41;;;;;;;6.18;5.38;;;;;;;8.63;nan;101196.50;5008516;28;20440;-42
2023/04/28 00:53:07;;;;;;;6.82;5.88;;;;;;;8.76;nan;101207.63;4992959;28;20026;-45
2023/04/28 00:55:34;;;;;;;8.95;5.30;;;;;;;8.76;nan;101202.38;4993004;28;20076;-45
2023/04/28 00:57:59;;;;;;;7.35;5.53;;;;;;;9.12;nan;101259.41;4992896;28;20038;-47
2023/04/28 01:00:24;;;;;;;5.63;5.13;;;;;;;9.12;nan;101258.56;4992813;28;20045;-42
2023/04/28 01:02:51;;;;;;;8.20;5.55;;;;;;;9.11;nan;101257.69;4992476;28;20038;-42
2023/04/28 01:05:17;;;;;;;8.05;5.53;;;;;;;9.09;nan;101248.09;4991516;28;20125;-42
2023/04/28 01:07:42;;;;;;;7.43;5.38;;;;;;;9.11;nan;101243.72;5007840;28;20121;-42
2023/04/28 01:10:08;;;;;;;9.52;5.85;;;;;;;8.72;nan;101172.72;4991235;28;20050;-40
2023/04/28 01:12:33;;;;;;;8.23;5.35;;;;;;;9.10;nan;101239.34;4992498;28;20065;-44
2023/04/28 01:14:59;;;;;;;8.13;5.57;;;;;;;8.64;nan;101169.34;4992732;28;20070;-43
2023/04/28 01:17:24;;;;;;;6.43;5.47;;;;;;;8.75;nan;101184.91;4992825;28;20030;-41
2023/04/28 01:19:51;;;;;;;5.80;5.20;;;;;;;8.96;nan;101222.09;4992697;28;20036;-44
2023/04/28 01:22:17;;;;;;;7.85;6.35;;;;;;;9.03;nan;101231.59;4991624;28;20046;-43
2023/04/28 01:24:42;;;;;;;10.15;6.00;;;;;;;9.06;nan;101230.66;4992984;28;20045;-46
2023/04/28 01:27:07;;;;;;;6.15;5.55;;;;;;;8.63;nan;101148.41;4996055;28;20165;-41
2023/04/28 01:29:33;;;;;;;8.05;6.75;;;;;;;8.79;nan;101183.94;4996915;28;20045;-45
2023/04/28 01:31:58;;;;;;;7.32;6.00;;;;;;;9.03;nan;101215.81;4996525;28;20080;-41
2023/04/28 01:34:23;;;;;;;7.13;5.63;;;;;;;9.04;nan;101217.56;4996807;28;20050;-42
2023/04/28 01:36:49;;;;;;;6.80;5.72;;;;;;;8.98;nan;101191.44;4995302;28;20038;-42
2023/04/28 01:39:15;;;;;;;8.15;5.70;;;;;;;9.05;nan;101213.16;5011323;28;20038;-41
2023/04/28 01:41:41;;;;;;;8.75;6.07;;;;;;;8.64;nan;101137.03;4996342;28;20505;-44
2023/04/28 01:44:06;;;;;;;8.85;6.15;;;;;;;9.04;nan;101203.56;4996342;28;20045;-42
2023/04/28 01:46:32;;;;;;;7.82;6.32;;;;;;;8.93;nan;101166.16;4994692;28;20120;-41
2023/04/28 01:48:57;;;;;;;9.23;5.90;;;;;;;8.94;nan;101174.00;5011353;28;20050;-41
2023/04/28 01:51:23;;;;;;;6.20;5.60;;;;;;;8.51;nan;101093.53;4996587;28;20034;-44
2023/04/28 01:53:48;;;;;;;10.10;6.47;;;;;;;9.02;nan;101192.22;5010298;28;20125;-45
2023/04/28 01:56:13;;;;;;;7.65;5.72;;;;;;;8.90;nan;101177.56;5011395;28;20034;-43
2023/04/28 01:58:39;;;;;;;8.15;5.45;;;;;;;9.02;nan;101198.34;5011368;28;20046;-44
2023/04/28 02:01:05;;;;;;;8.43;6.10;;;;;;;8.64;nan;101113.41;4994859;28;20397;-43
2023/04/28 02:03:30;;;;;;;7.95;6.78;;;;;;;8.98;nan;101180.94;4996002;28;20085;-44
2023/04/28 02:05:55;;;;;;;6.22;5.63;;;;;;;8.99;nan;101169.50;4995933;28;20042;-43
2023/04/28 02:08:21;;;;;;;7.28;6.10;;;;;;;9.03;nan;101168.56;4995817;28;20030;-42
2023/04/28 02:10:46;;;;;;;8.27;5.65;;;;;;;8.61;nan;101098.56;4995161;28;20049;-42
2023/04/28 02:13:11;;;;;;;8.40;6.05;;;;;;;9.02;nan;101161.56;4996011;28;20049;-42
2023/04/28 02:15:41;;;;;;;9.27;6.00;;;;;;;8.59;nan;101089.84;4995982;28;20034;-43
2023/04/28 02:18:06;;;;;;;6.60;6.00;;;;;;;8.94;nan;101150.38;4994515;28;20045;-41
2023/04/28 02:20:32;;;;;;;7.00;5.25;;;;;;;8.98;nan;101148.56;4995589;28;20038;-41
2023/04/28 02:22:57;;;;;;;7.22;5.63;;;;;;;8.98;nan;101144.16;4995389;28;20046;-41
2023/04/28 02:25:22;;;;;;;9.50;6.30;;;;;;;8.96;nan;101139.84;4994693;28;20041;-41
2023/04/28 02:27:47;;;;;;;6.95;6.05;;;;;;;8.49;nan;101057.69;4994773;28;20370;-42
2023/04/28 02:30:13;;;;;;;7.45;6.28;;;;;;;8.90;nan;101142.59;5010704;28;20390;-47
2023/04/28 02:32:38;;;;;;;9.00;5.63;;;;;;;8.91;nan;101142.56;4995831;28;20041;-41
2023/04/28 02:35:04;;;;;;;9.80;6.38;;;;;;;8.56;nan;101068.06;4995532;28;20495;-43
2023/04/28 02:37:29;;;;;;;10.20;6.53;;;;;;;8.72;nan;101093.09;5010134;28;20114;-42
2023/04/28 02:39:55;;;;;;;8.02;6.53;;;;;;;8.65;nan;101087.13;4995452;28;20061;-41
2023/04/28 02:42:20;;;;;;;6.93;6.13;;;;;;;8.93;nan;101132.03;4995337;28;20096;-40
2023/04/28 02:44:45;;;;;;;6.70;5.95;;;;;;;8.93;nan;101137.28;4994621;28;20034;-42
2023/04/28 02:47:11;;;;;;;7.35;5.72;;;;;;;8.91;nan;101133.81;4995506;28;20506;-41
2023/04/28 02:49:36;;;;;;;8.23;6.22;;;;;;;8.91;nan;101129.44;4995286;28;20043;-41
2023/04/28 02:52:01;;;;;;;8.10;6.40;;;;;;;8.92;nan;101133.81;4994946;28;20038;-43
2023/04/28 02:54:27;;;;;;;8.55;5.95;;;;;;;8.92;nan;101128.53;4995240;28;20058;-40
2023/04/28 02:56:53;;;;;;;6.68;6.03;;;;;;;8.86;nan;101128.66;4995184;28;20125;-42
2023/04/28 02:59:19;;;;;;;8.55;6.57;;;;;;;8.87;nan;101138.25;4995082;28;20049;-43
2023/04/28 03:01:45;;;;;;;7.47;6.05;;;;;;;8.89;nan;101126.00;4976676;28;20489;-43
2023/04/28 03:04:10;;;;;;;12.68;6.50;;;;;;;8.94;nan;101121.50;4994917;28;20088;-39
2023/04/28 03:06:35;;;;;;;8.95;5.40;;;;;;;8.71;nan;101075.63;4993741;28;20432;-45
2023/04/28 03:09:01;;;;;;;7.00;6.15;;;;;;;8.54;nan;101044.50;4995285;28;20075;-42
2023/04/28 03:11:26;;;;;;;7.82;5.97;;;;;;;8.89;nan;101112.84;4995031;28;20034;-42
2023/04/28 03:13:51;;;;;;;8.07;5.82;;;;;;;8.88;nan;101105.88;4994927;28;20034;-42
2023/04/28 03:16:17;;;;;;;7.43;6.47;;;;;;;8.89;nan;101096.25;4994795;28;20470;-40
2023/04/28 03:18:42;;;;;;;7.20;6.50;;;;;;;8.55;nan;101037.50;4993653;28;20537;-42
2023/04/28 03:21:08;;;;;;;8.38;6.43;;;;;;;8.84;nan;101092.84;4993020;28;20142;-40
2023/04/28 03:23:33;;;;;;;6.97;5.60;;;;;;;8.40;nan;101002.81;4994618;28;20121;-41
2023/04/28 03:25:58;;;;;;;7.93;6.10;;;;;;;8.89;nan;101085.75;4994695;28;20038;-41
2023/04/28 03:28:23;;;;;;;9.70;5.78;;;;;;;8.48;nan;101016.63;4994926;28;20049;-41
2023/04/28 03:30:49;;;;;;;7.97;5.55;;;;;;;8.85;nan;101070.94;4994518;28;20066;-45
2023/04/28 03:33:15;;;;;;;6.57;5.75;;;;;;;8.53;nan;101016.53;5009478;28;20030;-41
2023/04/28 03:35:40;;;;;;;6.80;5.85;;;;;;;8.45;nan;101015.81;4993347;28;20075;-41
2023/04/28 03:38:05;;;;;;;8.02;6.22;;;;;;;8.83;nan;101062.25;4994460;28;20065;-40
2023/04/28 03:40:31;;;;;;;8.00;6.07;;;;;;;8.84;nan;101071.84;4993048;28;20405;-41
2023/04/28 03:42:57;;;;;;;6.35;5.75;;;;;;;8.57;nan;101019.94;4994205;28;20034;-42
2023/04/28 03:45:22;;;;;;;8.40;6.00;;;;;;;8.86;nan;101080.56;4994286;28;20039;-42
2023/04/28 03:47:47;;;;;;;8.00;6.40;;;;;;;8.29;nan;100978.56;4993732;28;20046;-42
2023/04/28 03:50:13;;;;;;;8.02;5.85;;;;;;;8.81;nan;101069.28;4993648;28;20042;-41
2023/04/28 03:52:38;;;;;;;7.63;6.15;;;;;;;8.79;nan;101066.69;4993253;28;20042;-42
2023/04/28 03:55:04;;;;;;;9.32;6.15;;;;;;;8.77;nan;101037.00;4993962;28;20117;-44
2023/04/28 03:57:29;;;;;;;7.53;6.50;;;;;;;8.72;nan;101022.25;4994011;28;20038;-44
2023/04/28 03:59:55;;;;;;;6.97;6.25;;;;;;;8.79;nan;101031.69;4994064;28;20474;-49
2023/04/28 04:02:20;;;;;;;8.23;6.65;;;;;;;8.38;nan;100957.38;4993910;28;20541;-43
2023/04/28 04:04:46;;;;;;;8.57;6.53;;;;;;;8.79;nan;101027.31;4993743;28;20501;-43
2023/04/28 04:07:12;;;;;;;7.97;6.75;;;;;;;8.70;nan;101001.28;4993614;28;20122;-40
2023/04/28 04:09:37;;;;;;;7.45;6.68;;;;;;;8.43;nan;100952.88;4992978;28;20126;-42
2023/04/28 04:12:03;;;;;;;10.90;6.78;;;;;;;8.85;nan;101015.81;4993783;28;20061;-42
2023/04/28 04:14:28;;;;;;;9.13;7.35;;;;;;;8.44;nan;100951.13;4993654;28;20233;-42
2023/04/28 04:16:54;;;;;;;10.50;6.72;;;;;;;8.75;nan;101009.06;4993726;28;20418;-42
2023/04/28 04:19:19;;;;;;;8.85;7.20;;;;;;;8.78;nan;101012.50;4992116;28;20085;-41
2023/04/28 04:21:45;;;;;;;10.88;7.30;;;;;;;8.81;nan;101025.53;4993478;28;20421;-41
2023/04/28 04:24:10;;;;;;;12.38;6.80;;;;;;;8.83;nan;101025.50;4993567;28;20034;-42
2023/04/28 04:26:36;;;;;;;9.07;7.05;;;;;;;8.77;nan;101021.25;4992637;28;20049;-41
2023/04/28 04:29:01;;;;;;;8.38;6.53;;;;;;;8.86;nan;101031.53;4993477;28;20023;-42
2023/04/28 04:31:26;;;;;;;8.02;7.22;;;;;;;8.85;nan;101035.06;4993167;28;20026;-42
2023/04/28 04:33:52;;;;;;;13.15;6.40;;;;;;;8.86;nan;101039.41;4993010;28;20470;-43
2023/04/28 04:36:17;;;;;;;8.02;6.90;;;;;;;8.89;nan;101036.72;4993160;28;20038;-41
2023/04/28 04:38:42;;;;;;;8.73;7.03;;;;;;;8.91;nan;101029.69;4993386;28;20046;-44
2023/04/28 04:41:08;;;;;;;9.52;7.57;;;;;;;8.37;nan;100945.19;4993156;28;20062;-41
2023/04/28 04:43:33;;;;;;;9.40;8.27;;;;;;;8.43;nan;100970.41;4992417;28;20294;-42
2023/04/28 04:45:59;;;;;;;11.13;8.95;;;;;;;8.40;nan;100966.09;4993125;28;20509;-42
2023/04/28 04:48:24;;;;;;;10.90;8.75;;;;;;;8.73;nan;101022.19;4993016;28;20397;-44
2023/04/28 04:50:50;;;;;;;12.52;8.27;;;;;;;8.33;nan;100961.88;4991754;28;20155;-40
2023/04/28 04:53:15;;;;;;;12.13;8.70;;;;;;;8.64;nan;101016.31;4993265;28;20077;-45
2023/04/28 04:55:40;;;;;;;9.93;8.90;;;;;;;8.59;nan;101008.53;4993221;28;20062;-45
2023/04/28 04:58:06;;;;;;;11.25;9.00;;;;;;;8.58;nan;101005.94;4993101;28;20038;-42
2023/04/28 05:00:32;;;;;;;10.68;9.57;;;;;;;8.54;nan;101004.28;4991840;28;20034;-40
2023/04/28 05:02:57;;;;;;;10.15;8.55;;;;;;;8.51;nan;100975.47;4992882;28;20038;-43
2023/04/28 05:05:23;;;;;;;9.95;8.73;;;;;;;8.51;nan;100976.34;4992585;28;20060;-43
2023/04/28 05:07:48;;;;;;;12.10;7.93;;;;;;;8.06;nan;100893.38;4993133;28;20061;-45
2023/04/28 05:10:13;;;;;;;11.50;9.10;;;;;;;8.42;nan;100969.53;5008210;28;20449;-45
2023/04/28 05:12:39;;;;;;;11.18;9.20;;;;;;;8.57;nan;100985.84;5004793;28;20438;-47
2023/04/28 05:15:06;;;;;;;10.60;9.02;;;;;;;8.16;nan;100908.00;4991940;28;20605;-42
2023/04/28 05:17:31;;;;;;;12.77;9.82;;;;;;;8.57;nan;100970.09;4992510;28;20065;-45
2023/04/28 05:19:57;;;;;;;11.93;8.77;;;;;;;8.57;nan;100964.84;4991708;28;20473;-42
2023/04/28 05:22:22;;;;;;;10.23;9.23;;;;;;;8.16;nan;100890.53;4992783;28;21439;-43
2023/04/28 05:24:47;;;;;;;11.30;10.18;;;;;;;8.51;nan;100952.75;4992916;28;20462;-43
2023/04/28 05:27:13;;;;;;;11.32;9.30;;;;;;;8.22;nan;100905.25;4992882;28;20034;-41
2023/04/28 05:29:38;;;;;;;11.73;10.15;;;;;;;7.77;nan;100811.00;5008042;28;20473;-42
2023/04/28 05:32:04;;;;;;;15.25;10.88;;;;;;;8.14;nan;100863.50;4992690;28;20426;-41
2023/04/28 05:34:29;;;;;;;13.43;10.88;;;;;;;8.52;nan;100933.47;4990466;28;20049;-39
2023/04/28 05:36:54;;;;;;;12.02;10.70;;;;;;;8.45;nan;100922.25;4992819;28;20050;-41
2023/04/28 05:39:20;;;;;;;14.75;11.05;;;;;;;8.47;nan;100935.31;4991380;28;20497;-44
2023/04/28 05:41:45;;;;;;;12.50;10.80;;;;;;;8.03;nan;100856.72;4992628;28;20058;-42
2023/04/28 05:44:11;;;;;;;12.52;11.15;;;;;;;8.39;nan;100922.38;4992493;28;20044;-40
2023/04/28 05:46:36;;;;;;;13.70;10.98;;;;;;;8.42;nan;100924.09;4991242;28;20114;-43
2023/04/28 05:49:02;;;;;;;15.55;11.82;;;;;;;8.42;nan;100930.19;4991093;28;20039;-42
2023/04/28 05:51:27;;;;;;;12.98;11.07;;;;;;;8.08;nan;100868.88;4990425;28;20050;-41
2023/04/28 05:53:53;;;;;;;14.63;11.68;;;;;;;8.37;nan;100912.84;4987210;28;20034;-43
2023/04/28 05:56:19;;;;;;;12.98;11.55;;;;;;;8.59;nan;100949.94;4989564;28;20034;-42
2023/04/28 05:58:46;;;;;;;13.70;11.23;;;;;;;8.64;nan;100950.72;4990901;28;20076;-41
2023/04/28 06:01:11;;;;;;;15.25;11.60;;;;;;;8.53;nan;100910.72;4984667;28;20130;-42
2023/04/28 06:03:36;;;;;;;13.18;11.75;;;;;;;8.27;nan;100859.72;4988620;28;20511;-42
2023/04/28 06:06:02;;;;;;;13.98;11.20;;;;;;;8.76;nan;100937.28;4990698;28;20043;-41
2023/04/28 06:08:27;;;;;;;15.98;12.60;;;;;;;8.80;nan;100944.19;4990565;28;20064;-42
2023/04/28 06:10:53;;;;;;;13.80;11.57;;;;;;;8.45;nan;100868.94;4984251;28;20039;-42
2023/04/28 06:13:18;;;;;;;13.02;11.43;;;;;;;8.89;nan;100934.34;4994636;28;20154;-41
2023/04/28 06:15:43;;;;;;;15.73;12.63;;;;;;;8.93;nan;100930.72;4992900;28;20394;-43
2023/04/28 06:18:09;;;;;;;14.15;12.32;;;;;;;8.97;nan;100935.03;4989030;28;20485;-40
2023/04/28 06:20:35;;;;;;;17.05;13.23;;;;;;;8.99;nan;100929.72;4993855;28;20515;-41
2023/04/28 06:23:02;;;;;;;13.30;11.90;;;;;;;9.03;nan;100939.25;4979112;28;20039;-42
2023/04/28 06:25:27;;;;;;;14.40;11.27;;;;;;;9.00;nan;100918.31;4986655;28;20165;-42
2023/04/28 06:27:52;;;;;;;15.95;12.57;;;;;;;8.41;nan;100849.75;5010780;28;20058;-42
2023/04/28 06:30:22;;;;;;;16.77;12.82;;;;;;;8.56;nan;100850.31;4988000;28;20046;-42
2023/04/28 06:32:47;;;;;;;14.80;12.68;;;;;;;8.84;nan;100904.69;4974966;28;20035;-43
2023/04/28 06:35:13;;;;;;;18.00;14.88;;;;;;;8.44;nan;100840.97;4985850;28;20038;-41
2023/04/28 06:37:39;;;;;;;15.77;13.55;;;;;;;8.65;nan;100895.56;4994876;28;20072;-43
2023/04/28 06:40:05;;;;;;;19.45;15.20;;;;;;;8.58;nan;100867.72;4993629;28;20078;-43
2023/04/28 06:42:31;;;;;;;19.27;15.55;;;;;;;8.77;nan;100884.78;4992506;28;20046;-40
2023/04/28 06:44:56;;;;;;;17.70;14.75;;;;;;;8.95;nan;100880.84;4995310;28;20061;-40
2023/04/28 06:47:21;;;;;;;18.17;14.30;;;;;;;9.02;nan;100851.75;4993364;28;20036;-42
2023/04/28 06:49:49;;;;;;;19.52;15.15;;;;;;;9.21;nan;100835.50;4994252;28;20038;-43
2023/04/28 06:52:14;;;;;;;17.30;14.98;;;;;;;9.78;nan;100896.13;4990118;28;20039;-43
2023/04/28 06:54:40;;;;;;;17.17;13.95;;;;;;;9.75;nan;100897.06;4984738;28;20053;-43
2023/04/28 06:57:05;;;;;;;17.52;14.45;;;;;;;9.74;nan;100894.47;4994033;28;20054;-43
2023/04/28 06:59:31;;;;;;;19.48;14.80;;;;;;;9.78;nan;100901.38;4994731;28;20085;-42
2023/04/28 07:01:56;;;;;;;16.73;15.02;;;;;;;9.47;nan;100891.72;4993992;28;20045;-43
2023/04/28 07:04:21;;;;;;;21.10;16.52;;;;;;;9.26;nan;100839.75;4992378;28;20026;-44
2023/04/28 07:06:47;;;;;;;17.35;15.55;;;;;;;9.19;nan;100853.09;4985686;28;20062;-45
2023/04/28 07:09:12;;;;;;;18.23;15.75;;;;;;;9.14;nan;100837.44;4976953;28;20156;-44
2023/04/28 07:11:38;;;;;;;22.40;16.90;;;;;;;9.20;nan;100847.78;4975038;28;20043;-42
2023/04/28 07:14:03;;;;;;;23.42;17.30;;;;;;;9.59;nan;100898.41;4974363;28;20031;-42
2023/04/28 07:16:29;;;;;;;22.05;18.23;;;;;;;9.35;nan;100868.38;4975131;28;20046;-45
2023/04/28 07:18:55;;;;;;;21.90;18.05;;;;;;;9.57;nan;100902.84;4974108;28;20043;-42
2023/04/28 07:21:20;;;;;;;22.48;17.77;;;;;;;9.19;nan;100843.44;4973807;28;20030;-43
2023/04/28 07:23:46;;;;;;;24.08;19.10;;;;;;;9.58;nan;100915.06;4977203;28;20034;-43
2023/04/28 07:26:15;;;;;;;21.98;18.45;;;;;;;9.59;nan;100903.66;4994082;28;20069;-41
2023/04/28 07:28:40;;;;;;;25.33;19.73;;;;;;;9.65;nan;100892.09;4993282;28;20319;-43
2023/04/28 07:31:05;;;;;;;21.35;18.73;;;;;;;9.38;nan;100839.41;4993739;28;20113;-41
2023/04/28 07:33:31;;;;;;;23.58;19.98;;;;;;;9.75;nan;100897.06;5008686;28;20085;-47
2023/04/28 07:35:56;;;;;;;27.52;20.27;;;;;;;9.77;nan;100892.63;4993030;28;20034;-42
2023/04/28 07:38:22;;;;;;;23.63;20.23;;;;;;;9.93;nan;100895.66;4993766;28;20081;-41
2023/04/28 07:40:47;;;;;;;27.00;20.60;;;;;;;9.86;nan;100858.19;4993116;28;20054;-41
2023/04/28 07:43:13;;;;;;;26.92;21.80;;;;;;;10.08;nan;100874.19;4991146;28;20042;-42
2023/04/28 07:45:39;;;;;;;25.00;20.60;;;;;;;9.96;nan;100828.09;4994570;28;20453;-40
2023/04/28 07:48:05;;;;;;;25.08;20.52;;;;;;;10.04;nan;100809.47;4990085;28;20053;-40
2023/04/28 07:50:30;;;;;;;23.25;20.05;;;;;;;10.69;nan;100888.97;4993091;28;20035;-41
2023/04/28 07:52:57;;;;;;;22.58;19.55;;;;;;;10.80;nan;100851.78;4993594;28;20034;-41
2023/04/28 07:55:23;;;;;;;23.83;20.70;;;;;;;10.76;nan;100823.84;5008867;28;20034;-41
2023/04/28 07:57:48;;;;;;;23.75;20.02;;;;;;;11.28;nan;100876.47;4980850;28;20427;-40
2023/04/28 08:00:14;;;;;;;21.50;19.20;;;;;;;11.34;nan;100884.16;4989156;28;20030;-42
2023/04/28 08:02:39;;;;;;;24.17;19.40;;;;;;;11.07;nan;100835.91;4993525;28;20864;-42
2023/04/28 08:05:07;;;;;;;22.85;19.27;;;;;;;11.42;nan;100891.78;4993359;28;20446;-42
2023/04/28 08:07:32;;;;;;;23.15;20.60;;;;;;;11.45;nan;100896.94;4993674;28;20066;-41
2023/04/28 08:09:58;;;;;;;23.67;21.05;;;;;;;11.42;nan;100886.50;4992375;28;20446;-44
2023/04/28 08:12:23;;;;;;;24.35;20.83;;;;;;;10.96;nan;100818.75;4989095;28;20042;-42
2023/04/28 08:14:48;;;;;;;24.50;21.58;;;;;;;11.36;nan;100889.34;4990903;28;20081;-41
2023/04/28 08:17:14;;;;;;;23.95;21.58;;;;;;;11.38;nan;100893.69;4992868;28;20153;-42
2023/04/28 08:19:39;;;;;;;24.40;21.80;;;;;;;10.99;nan;100808.13;4993482;28;20466;-41
2023/04/28 08:22:06;;;;;;;26.23;21.63;;;;;;;11.63;nan;100889.25;4993520;28;20049;-42
2023/04/28 08:24:34;;;;;;;24.38;21.27;;;;;;;11.72;nan;100886.34;4992144;28;20035;-44
2023/04/28 08:27:02;;;;;;;23.90;21.17;;;;;;;11.34;nan;100809.50;4993486;28;20249;-40
2023/04/28 08:29:31;;;;;;;25.13;22.42;;;;;;;11.78;nan;100883.47;4992202;28;20030;-44
2023/04/28 08:31:56;;;;;;;27.83;23.48;;;;;;;11.88;nan;100877.88;4993159;28;20049;-40
2023/04/28 08:34:22;;;;;;;29.35;23.52;;;;;;;11.65;nan;100821.50;4991770;28;20125;-43
2023/04/28 08:36:47;;;;;;;27.08;22.90;;;;;;;12.08;nan;100867.44;4993363;28;20121;-46
2023/04/28 08:39:12;;;;;;;28.00;25.00;;;;;;;11.84;nan;100805.91;4993220;28;20038;-44
2023/04/28 08:41:40;;;;;;;28.75;24.67;;;;;;;12.31;nan;100863.00;4992889;28;20064;-41
2023/04/28 08:44:09;;;;;;;25.70;22.90;;;;;;;12.35;nan;100853.13;4992208;28;20062;-43
2023/04/28 08:46:35;;;;;;;25.02;22.55;;;;;;;12.46;nan;100856.25;4974047;28;20045;-42
2023/04/28 08:49:01;;;;;;;26.30;23.60;;;;;;;12.60;nan;100861.81;4988732;28;20062;-42
2023/04/28 08:51:36;;;;;;;26.17;23.48;;;;;;;12.63;nan;100861.69;4972531;28;20485;-40
2023/04/28 08:54:05;;;;;;;25.70;22.92;;;;;;;12.50;nan;100828.78;4972222;28;20493;-42
2023/04/28 08:56:33;;;;;;;24.58;22.05;;;;;;;12.44;nan;100802.63;4972272;28;20121;-42
2023/04/28 08:59:03;;;;;;;25.80;23.20;;;;;;;12.58;nan;100823.22;4973851;28;20043;-41
2023/04/28 09:01:29;;;;;;;26.63;23.93;;;;;;;12.43;nan;100814.97;4983914;28;20049;-40
2023/04/28 09:03:55;;;;;;;28.40;25.45;;;;;;;12.32;nan;100811.03;4991635;28;20382;-42
2023/04/28 09:06:21;;;;;;;29.60;26.70;;;;;;;12.83;nan;100858.25;4992854;28;20129;-43
2023/04/28 09:08:47;;;;;;;31.23;27.88;;;;;;;12.88;nan;100851.84;4992848;28;20072;-44
2023/04/28 09:11:13;;;;;;;31.02;27.77;;;;;;;13.09;nan;100842.19;4992608;28;20117;-42
2023/04/28 09:13:39;;;;;;;31.13;28.00;;;;;;;13.06;nan;100833.50;4993111;28;20035;-41
2023/04/28 09:16:05;;;;;;;30.65;27.55;;;;;;;13.13;nan;100861.44;4991925;28;20504;-43
2023/04/28 09:18:32;;;;;;;32.17;28.70;;;;;;;13.13;nan;100845.56;4975285;28;20383;-44
2023/04/28 09:21:04;;;;;;;33.72;29.92;;;;;;;13.22;nan;100855.75;4991787;28;20035;-43
2023/04/28 09:23:29;;;;;;;34.05;30.27;;;;;;;13.28;nan;100850.19;4992604;28;20142;-41
2023/04/28 09:26:06;;;;;;;33.40;29.90;;;;;;;13.04;nan;100791.28;4991485;28;20116;-41
2023/04/28 09:28:32;;;;;;;33.35;29.80;;;;;;;13.43;nan;100809.84;4991580;28;20593;-43
2023/04/28 09:30:58;;;;;;;33.92;30.38;;;;;;;13.64;nan;100847.69;4992884;28;20029;-43
2023/04/28 09:33:24;;;;;;;31.35;28.15;;;;;;;13.73;nan;100848.16;4991789;28;20110;-43
2023/04/28 09:35:49;;;;;;;30.88;28.00;;;;;;;13.54;nan;100818.19;4987095;28;20408;-43
2023/04/28 09:38:15;;;;;;;29.73;26.98;;;;;;;13.54;nan;100840.19;4993767;28;20093;-41
2023/04/28 09:40:53;;;;;;;32.45;29.17;;;;;;;13.67;nan;100839.63;4991130;28;20143;-40
2023/04/28 09:43:27;;;;;;;27.85;25.15;;;;;;;13.66;nan;100830.84;4995187;28;20485;-40
2023/04/28 09:45:52;;;;;;;28.52;25.67;;;;;;;13.52;nan;100796.22;4987727;28;20039;-43
2023/04/28 09:48:29;;;;;;;28.67;25.77;;;;;;;13.84;nan;100845.00;4979324;28;20057;-42
2023/04/28 09:50:55;;;;;;;25.63;23.13;;;;;;;13.58;nan;100780.06;4983569;28;20066;-41
2023/04/28 09:53:24;;;;;;;21.67;19.67;;;;;;;13.97;nan;100848.84;4995583;28;20038;-43
2023/04/28 09:55:52;;;;;;;16.38;14.68;;;;;;;13.88;nan;100850.13;4991832;28;20038;-41
2023/04/28 09:58:19;;;;;;;13.70;12.32;;;;;;;13.91;nan;100852.63;4994661;28;20037;-44
2023/04/28 10:00:48;;;;;;;13.35;12.07;;;;;;;13.87;nan;100845.75;5002103;28;20034;-43
2023/04/28 10:03:14;;;;;;;9.30;7.93;;;;;;;13.79;nan;100852.31;5010631;28;20053;-43
2023/04/28 10:05:40;;;;;;;8.20;7.50;;;;;;;13.80;nan;100848.75;4994272;28;20038;-40
2023/04/28 10:08:05;;;;;;;7.05;5.50;;;;;;;13.71;nan;100857.09;4994394;28;20038;-41
2023/04/28 10:10:30;;;;;;;6.28;5.05;;;;;;;13.69;nan;100856.31;4984771;28;20553;-43
2023/04/28 10:12:56;;;;;;;5.78;5.28;;;;;;;13.61;nan;100859.28;4988768;28;20437;-45
2023/04/28 10:15:22;;;;;;;6.53;5.10;;;;;;;13.28;nan;100800.81;4995491;28;20038;-41
2023/04/28 10:17:49;;;;;;;7.03;5.75;;;;;;;13.29;nan;100810.47;4999688;28;20405;-44
2023/04/28 10:20:15;;;;;;;8.30;5.80;;;;;;;13.56;nan;100861.28;4995216;28;20065;-43
2023/04/28 10:22:53;;;;;;;6.60;5.15;;;;;;;13.57;nan;100865.66;4992413;28;20071;-44
2023/04/28 10:25:26;;;;;;;7.63;5.22;;;;;;;13.25;nan;100797.47;4995847;28;20022;-45
2023/04/28 10:27:52;;;;;;;13.82;6.32;;;;;;;13.38;nan;100835.63;4994445;28;20044;-43
2023/04/28 10:30:20;;;;;;;9.43;5.28;;;;;;;13.46;nan;100852.03;4994410;28;20389;-43
2023/04/28 10:32:46;;;;;;;10.38;4.78;;;;;;;13.43;nan;100860.94;4995859;28;20034;-42
2023/04/28 10:35:20;;;;;;;8.63;5.35;;;;;;;13.37;nan;100878.84;4995695;28;20050;-42
2023/04/28 10:38:04;;;;;;;8.02;4.68;;;;;;;13.05;nan;100822.06;4993152;28;20201;-42
2023/04/28 10:40:34;;;;;;;8.20;5.90;;;;;;;13.36;nan;100869.22;4994105;28;20077;-44
2023/04/28 10:43:00;;;;;;;10.25;5.60;;;;;;;13.43;nan;100868.03;4994497;28;20046;-41
2023/04/28 10:45:51;;;;;;;7.97;5.72;;;;;;;13.39;nan;100874.38;4995230;28;20048;-45
2023/04/28 10:48:18;;;;;;;8.38;6.22;;;;;;;13.14;nan;100818.19;4988579;28;20515;-44
2023/04/28 10:51:08;;;;;;;9.35;5.75;;;;;;;13.50;nan;100866.84;5010458;28;20049;-42
2023/04/28 10:56:09;;;;;;;9.30;6.05;;;;;;;13.04;nan;100811.56;4980811;28;20405;-43
2023/04/28 10:58:36;;;;;;;10.02;6.05;;;;;;;13.27;nan;100878.41;4974227;28;20070;-44
2023/04/28 11:01:20;;;;;;;9.02;5.85;;;;;;;13.18;nan;100864.72;4975969;28;20478;-43
2023/04/28 11:03:49;;;;;;;9.35;6.35;;;;;;;13.20;nan;100868.16;4974199;28;20035;-40
2023/04/28 11:06:22;;;;;;;9.25;5.93;;;;;;;13.24;nan;100881.19;4975182;28;20425;-45
2023/04/28 11:08:48;;;;;;;10.57;6.40;;;;;;;12.87;nan;100807.84;4975546;28;20034;-43
2023/04/28 11:11:15;;;;;;;10.68;6.97;;;;;;;13.24;nan;100862.69;4973979;28;20030;-41
2023/04/28 11:13:41;;;;;;;9.35;6.50;;;;;;;13.22;nan;100867.16;4975410;28;20065;-41
2023/04/28 11:16:06;;;;;;;9.00;6.15;;;;;;;12.66;nan;100763.00;4975397;28;20042;-51
2023/04/28 11:18:52;;;;;;;7.43;6.15;;;;;;;13.34;nan;100863.13;4975217;28;20039;-40
2023/04/28 11:21:18;;;;;;;8.43;5.25;;;;;;;13.35;nan;100863.06;4974785;28;20062;-46
2023/04/28 11:23:44;;;;;;;6.22;4.80;;;;;;;13.29;nan;100868.63;4973943;28;20031;-40
2023/04/28 11:26:10;;;;;;;4.32;3.63;;;;;;;13.28;nan;100866.06;4973808;28;20038;-45
2023/04/28 11:28:36;;;;;;;6.00;3.63;;;;;;;12.88;nan;100809.56;4983063;28;20030;-43
2023/04/28 11:31:12;;;;;;;3.40;2.78;;;;;;;13.24;nan;100878.53;5009429;28;20038;-42
2023/04/28 11:33:38;;;;;;;3.85;3.10;;;;;;;12.80;nan;100818.75;5004469;28;20030;-42
2023/04/28 11:36:04;;;;;;;2.85;2.55;;;;;;;13.09;nan;100884.47;4983416;28;20058;-43
2023/04/28 11:38:29;;;;;;;3.63;2.65;;;;;;;13.12;nan;100880.84;4992515;28;20038;-41